sensor_id;sensor_type;location;lat;lon;timestamp;P1;durP1;ratioP1;P2;durP2;ratioP2
5121;SDS011;2563;52.242;7.956;2024-02-04T00:01:07;13.20;;;4.73;;
5121;SDS011;2563;52.242;7.956;2024-02-04T00:03:32;11.87;;;5.00;;
5121;SDS011;2563;52.242;7.956;2024-02-04T00:05:58;11.30;;;4.30;;
5121;SDS011;2563;52.242;7.956;2024-02-04T00:08:23;10.77;;;4.10;;
5121;SDS011;2563;52.242;7.956;2024-02-04T00:10:48;13.07;;;4.83;;
5121;SDS011;2563;52.242;7.956;2024-02-04T00:13:14;13.77;;;3.97;;
5121;SDS011;2563;52.242;7.956;2024-02-04T00:15:39;10.07;;;3.97;;
5121;SDS011;2563;52.242;7.956;2024-02-04T00:18:04;9.77;;;4.50;;
5121;SDS011;2563;52.242;7.956;2024-02-04T00:20:30;9.57;;;3.40;;
5121;SDS011;2563;52.242;7.956;2024-02-04T00:22:57;13.97;;;4.27;;
5121;SDS011;2563;52.242;7.956;2024-02-04T00:25:23;19.03;;;4.67;;
5121;SDS011;2563;52.242;7.956;2024-02-04T00:27:48;10.60;;;4.50;;
5121;SDS011;2563;52.242;7.956;2024-02-04T00:30:14;8.73;;;3.70;;
5121;SDS011;2563;52.242;7.956;2024-02-04T00:32:39;9.93;;;4.10;;
5121;SDS011;2563;52.242;7.956;2024-02-04T00:35:05;16.03;;;4.17;;
5121;SDS011;2563;52.242;7.956;2024-02-04T00:37:30;9.60;;;4.13;;
5121;SDS011;2563;52.242;7.956;2024-02-04T00:39:55;10.47;;;3.67;;
5121;SDS011;2563;52.242;7.956;2024-02-04T00:42:21;12.77;;;3.77;;
5121;SDS011;2563;52.242;7.956;2024-02-04T00:44:47;12.97;;;3.90;;
5121;SDS011;2563;52.242;7.956;2024-02-04T00:47:12;8.57;;;3.70;;
5121;SDS011;2563;52.242;7.956;2024-02-04T00:49:38;11.30;;;3.90;;
5121;SDS011;2563;52.242;7.956;2024-02-04T00:52:04;9.13;;;4.27;;
5121;SDS011;2563;52.242;7.956;2024-02-04T00:54:29;10.40;;;4.20;;
5121;SDS011;2563;52.242;7.956;2024-02-04T00:56:55;12.13;;;4.70;;
5121;SDS011;2563;52.242;7.956;2024-02-04T00:59:20;10.43;;;4.87;;
5121;SDS011;2563;52.242;7.956;2024-02-04T01:01:45;10.00;;;4.60;;
5121;SDS011;2563;52.242;7.956;2024-02-04T01:04:11;15.50;;;4.73;;
5121;SDS011;2563;52.242;7.956;2024-02-04T01:06:37;11.67;;;4.90;;
5121;SDS011;2563;52.242;7.956;2024-02-04T01:09:02;10.97;;;4.87;;
5121;SDS011;2563;52.242;7.956;2024-02-04T01:11:28;13.50;;;5.20;;
5121;SDS011;2563;52.242;7.956;2024-02-04T01:13:54;12.50;;;4.77;;
5121;SDS011;2563;52.242;7.956;2024-02-04T01:16:19;10.17;;;4.77;;
5121;SDS011;2563;52.242;7.956;2024-02-04T01:18:45;11.63;;;4.67;;
5121;SDS011;2563;52.242;7.956;2024-02-04T01:21:10;13.73;;;4.50;;
5121;SDS011;2563;52.242;7.956;2024-02-04T01:23:36;9.63;;;4.30;;
5121;SDS011;2563;52.242;7.956;2024-02-04T01:26:01;11.60;;;4.23;;
5121;SDS011;2563;52.242;7.956;2024-02-04T01:28:26;12.30;;;5.80;;
5121;SDS011;2563;52.242;7.956;2024-02-04T01:30:51;15.80;;;5.50;;
5121;SDS011;2563;52.242;7.956;2024-02-04T01:33:17;16.20;;;6.80;;
5121;SDS011;2563;52.242;7.956;2024-02-04T01:35:42;13.40;;;5.67;;
5121;SDS011;2563;52.242;7.956;2024-02-04T01:38:08;12.03;;;5.93;;
5121;SDS011;2563;52.242;7.956;2024-02-04T01:40:33;15.30;;;5.40;;
5121;SDS011;2563;52.242;7.956;2024-02-04T01:42:58;18.77;;;6.00;;
5121;SDS011;2563;52.242;7.956;2024-02-04T01:45:24;14.97;;;6.43;;
5121;SDS011;2563;52.242;7.956;2024-02-04T01:47:50;12.50;;;4.83;;
5121;SDS011;2563;52.242;7.956;2024-02-04T01:50:16;11.90;;;4.90;;
5121;SDS011;2563;52.242;7.956;2024-02-04T01:52:42;12.50;;;5.23;;
5121;SDS011;2563;52.242;7.956;2024-02-04T01:55:09;12.60;;;4.90;;
5121;SDS011;2563;52.242;7.956;2024-02-04T01:57:34;14.73;;;5.70;;
5121;SDS011;2563;52.242;7.956;2024-02-04T02:00:00;13.60;;;4.90;;
5121;SDS011;2563;52.242;7.956;2024-02-04T02:02:25;11.67;;;5.10;;
5121;SDS011;2563;52.242;7.956;2024-02-04T02:04:51;11.87;;;5.40;;
5121;SDS011;2563;52.242;7.956;2024-02-04T02:07:17;11.60;;;5.17;;
5121;SDS011;2563;52.242;7.956;2024-02-04T02:09:45;11.10;;;4.90;;
5121;SDS011;2563;52.242;7.956;2024-02-04T02:12:14;13.00;;;5.10;;
5121;SDS011;2563;52.242;7.956;2024-02-04T02:14:46;11.10;;;4.73;;
5121;SDS011;2563;52.242;7.956;2024-02-04T02:17:20;11.60;;;5.00;;
5121;SDS011;2563;52.242;7.956;2024-02-04T02:19:54;13.07;;;5.40;;
5121;SDS011;2563;52.242;7.956;2024-02-04T02:22:45;13.03;;;4.40;;
5121;SDS011;2563;52.242;7.956;2024-02-04T02:25:15;11.57;;;5.03;;
5121;SDS011;2563;52.242;7.956;2024-02-04T02:27:50;13.23;;;4.40;;
5121;SDS011;2563;52.242;7.956;2024-02-04T02:30:16;10.63;;;4.60;;
5121;SDS011;2563;52.242;7.956;2024-02-04T02:32:46;10.00;;;4.40;;
5121;SDS011;2563;52.242;7.956;2024-02-04T02:35:16;9.60;;;4.60;;
5121;SDS011;2563;52.242;7.956;2024-02-04T02:40:49;12.37;;;4.13;;
5121;SDS011;2563;52.242;7.956;2024-02-04T02:43:19;12.90;;;5.03;;
5121;SDS011;2563;52.242;7.956;2024-02-04T02:45:45;13.63;;;5.00;;
5121;SDS011;2563;52.242;7.956;2024-02-04T02:48:11;10.40;;;4.37;;
5121;SDS011;2563;52.242;7.956;2024-02-04T02:50:37;10.20;;;4.63;;
5121;SDS011;2563;52.242;7.956;2024-02-04T02:53:02;14.33;;;4.67;;
5121;SDS011;2563;52.242;7.956;2024-02-04T02:55:28;12.70;;;4.73;;
5121;SDS011;2563;52.242;7.956;2024-02-04T02:57:53;8.80;;;4.07;;
5121;SDS011;2563;52.242;7.956;2024-02-04T03:00:19;9.70;;;4.17;;
5121;SDS011;2563;52.242;7.956;2024-02-04T03:02:44;11.47;;;4.03;;
5121;SDS011;2563;52.242;7.956;2024-02-04T03:05:10;10.03;;;4.47;;
5121;SDS011;2563;52.242;7.956;2024-02-04T03:07:36;10.70;;;5.00;;
5121;SDS011;2563;52.242;7.956;2024-02-04T03:10:02;10.80;;;4.10;;
5121;SDS011;2563;52.242;7.956;2024-02-04T03:12:27;8.73;;;3.87;;
5121;SDS011;2563;52.242;7.956;2024-02-04T03:14:53;9.47;;;4.70;;
5121;SDS011;2563;52.242;7.956;2024-02-04T03:17:18;9.17;;;4.00;;
5121;SDS011;2563;52.242;7.956;2024-02-04T03:19:46;12.93;;;4.77;;
5121;SDS011;2563;52.242;7.956;2024-02-04T03:22:12;12.90;;;4.40;;
5121;SDS011;2563;52.242;7.956;2024-02-04T03:24:38;10.47;;;4.70;;
5121;SDS011;2563;52.242;7.956;2024-02-04T03:27:03;12.30;;;4.80;;
5121;SDS011;2563;52.242;7.956;2024-02-04T03:29:28;11.00;;;5.20;;
5121;SDS011;2563;52.242;7.956;2024-02-04T03:31:55;8.40;;;4.00;;
5121;SDS011;2563;52.242;7.956;2024-02-04T03:34:21;12.80;;;5.50;;
5121;SDS011;2563;52.242;7.956;2024-02-04T03:36:46;17.10;;;5.50;;
5121;SDS011;2563;52.242;7.956;2024-02-04T03:39:11;12.93;;;5.63;;
5121;SDS011;2563;52.242;7.956;2024-02-04T03:41:37;15.03;;;5.37;;
5121;SDS011;2563;52.242;7.956;2024-02-04T03:44:02;14.10;;;5.57;;
5121;SDS011;2563;52.242;7.956;2024-02-04T03:46:28;11.07;;;4.73;;
5121;SDS011;2563;52.242;7.956;2024-02-04T03:48:53;14.23;;;5.50;;
5121;SDS011;2563;52.242;7.956;2024-02-04T03:51:19;12.30;;;5.13;;
5121;SDS011;2563;52.242;7.956;2024-02-04T03:53:45;11.53;;;5.23;;
5121;SDS011;2563;52.242;7.956;2024-02-04T03:56:10;13.10;;;5.67;;
5121;SDS011;2563;52.242;7.956;2024-02-04T03:58:36;11.27;;;4.93;;
5121;SDS011;2563;52.242;7.956;2024-02-04T04:01:01;9.77;;;4.73;;
5121;SDS011;2563;52.242;7.956;2024-02-04T04:03:27;12.03;;;4.73;;
5121;SDS011;2563;52.242;7.956;2024-02-04T04:05:55;11.60;;;5.00;;
5121;SDS011;2563;52.242;7.956;2024-02-04T04:08:20;9.67;;;4.37;;
5121;SDS011;2563;52.242;7.956;2024-02-04T04:10:46;10.70;;;3.40;;
5121;SDS011;2563;52.242;7.956;2024-02-04T04:13:12;8.70;;;3.70;;
5121;SDS011;2563;52.242;7.956;2024-02-04T04:15:38;10.33;;;3.80;;
5121;SDS011;2563;52.242;7.956;2024-02-04T04:18:04;9.80;;;3.27;;
5121;SDS011;2563;52.242;7.956;2024-02-04T04:20:30;9.03;;;3.63;;
5121;SDS011;2563;52.242;7.956;2024-02-04T04:22:55;7.90;;;3.03;;
5121;SDS011;2563;52.242;7.956;2024-02-04T04:25:21;6.87;;;2.93;;
5121;SDS011;2563;52.242;7.956;2024-02-04T04:27:46;8.97;;;3.47;;
5121;SDS011;2563;52.242;7.956;2024-02-04T04:30:11;7.50;;;3.10;;
5121;SDS011;2563;52.242;7.956;2024-02-04T04:32:37;9.07;;;3.10;;
5121;SDS011;2563;52.242;7.956;2024-02-04T04:35:03;8.13;;;3.13;;
5121;SDS011;2563;52.242;7.956;2024-02-04T04:37:28;9.20;;;2.80;;
5121;SDS011;2563;52.242;7.956;2024-02-04T04:39:53;7.90;;;2.90;;
5121;SDS011;2563;52.242;7.956;2024-02-04T04:42:19;6.17;;;2.57;;
5121;SDS011;2563;52.242;7.956;2024-02-04T04:44:44;6.97;;;2.93;;
5121;SDS011;2563;52.242;7.956;2024-02-04T04:47:10;7.13;;;2.80;;
5121;SDS011;2563;52.242;7.956;2024-02-04T04:49:35;8.50;;;3.00;;
5121;SDS011;2563;52.242;7.956;2024-02-04T04:52:00;8.43;;;3.10;;
5121;SDS011;2563;52.242;7.956;2024-02-04T04:54:27;9.60;;;3.37;;
5121;SDS011;2563;52.242;7.956;2024-02-04T04:56:53;8.77;;;3.70;;
5121;SDS011;2563;52.242;7.956;2024-02-04T04:59:18;10.73;;;3.10;;
5121;SDS011;2563;52.242;7.956;2024-02-04T05:01:47;6.40;;;2.63;;
5121;SDS011;2563;52.242;7.956;2024-02-04T05:04:13;6.63;;;2.97;;
5121;SDS011;2563;52.242;7.956;2024-02-04T05:06:39;9.07;;;2.80;;
5121;SDS011;2563;52.242;7.956;2024-02-04T05:09:04;13.13;;;2.90;;
5121;SDS011;2563;52.242;7.956;2024-02-04T05:11:30;8.43;;;2.57;;
5121;SDS011;2563;52.242;7.956;2024-02-04T05:13:55;10.73;;;2.80;;
5121;SDS011;2563;52.242;7.956;2024-02-04T05:16:21;8.90;;;2.90;;
5121;SDS011;2563;52.242;7.956;2024-02-04T05:18:46;7.40;;;2.47;;
5121;SDS011;2563;52.242;7.956;2024-02-04T05:21:11;6.70;;;2.63;;
5121;SDS011;2563;52.242;7.956;2024-02-04T05:23:37;7.47;;;2.60;;
5121;SDS011;2563;52.242;7.956;2024-02-04T05:26:03;9.57;;;3.30;;
5121;SDS011;2563;52.242;7.956;2024-02-04T05:28:29;11.40;;;2.77;;
5121;SDS011;2563;52.242;7.956;2024-02-04T05:30:55;6.60;;;3.10;;
5121;SDS011;2563;52.242;7.956;2024-02-04T05:33:20;7.43;;;2.83;;
5121;SDS011;2563;52.242;7.956;2024-02-04T05:35:46;7.13;;;2.47;;
5121;SDS011;2563;52.242;7.956;2024-02-04T05:38:11;7.30;;;2.33;;
5121;SDS011;2563;52.242;7.956;2024-02-04T05:40:36;9.67;;;2.43;;
5121;SDS011;2563;52.242;7.956;2024-02-04T05:43:02;11.63;;;2.63;;
5121;SDS011;2563;52.242;7.956;2024-02-04T05:45:32;9.13;;;2.40;;
5121;SDS011;2563;52.242;7.956;2024-02-04T05:48:01;7.93;;;2.20;;
5121;SDS011;2563;52.242;7.956;2024-02-04T05:50:27;7.90;;;1.87;;
5121;SDS011;2563;52.242;7.956;2024-02-04T05:52:52;6.90;;;2.20;;
5121;SDS011;2563;52.242;7.956;2024-02-04T05:55:18;7.97;;;1.87;;
5121;SDS011;2563;52.242;7.956;2024-02-04T05:57:43;5.50;;;1.63;;
5121;SDS011;2563;52.242;7.956;2024-02-04T06:00:09;9.47;;;2.00;;
5121;SDS011;2563;52.242;7.956;2024-02-04T06:02:35;5.33;;;1.67;;
5121;SDS011;2563;52.242;7.956;2024-02-04T06:05:01;6.60;;;1.90;;
5121;SDS011;2563;52.242;7.956;2024-02-04T06:07:27;14.13;;;2.80;;
5121;SDS011;2563;52.242;7.956;2024-02-04T06:09:52;6.07;;;1.30;;
5121;SDS011;2563;52.242;7.956;2024-02-04T06:12:20;6.00;;;1.40;;
5121;SDS011;2563;52.242;7.956;2024-02-04T06:14:46;6.43;;;1.63;;
5121;SDS011;2563;52.242;7.956;2024-02-04T06:17:11;7.20;;;1.37;;
5121;SDS011;2563;52.242;7.956;2024-02-04T06:19:36;4.30;;;1.17;;
5121;SDS011;2563;52.242;7.956;2024-02-04T06:22:02;5.60;;;1.27;;
5121;SDS011;2563;52.242;7.956;2024-02-04T06:24:27;7.93;;;1.33;;
5121;SDS011;2563;52.242;7.956;2024-02-04T06:26:53;3.70;;;1.10;;
5121;SDS011;2563;52.242;7.956;2024-02-04T06:29:18;7.03;;;1.70;;
5121;SDS011;2563;52.242;7.956;2024-02-04T06:31:44;6.43;;;1.20;;
5121;SDS011;2563;52.242;7.956;2024-02-04T06:34:10;9.73;;;1.60;;
5121;SDS011;2563;52.242;7.956;2024-02-04T06:36:36;6.20;;;1.60;;
5121;SDS011;2563;52.242;7.956;2024-02-04T06:39:01;6.27;;;1.70;;
5121;SDS011;2563;52.242;7.956;2024-02-04T06:41:26;6.93;;;1.43;;
5121;SDS011;2563;52.242;7.956;2024-02-04T06:43:52;5.63;;;1.60;;
5121;SDS011;2563;52.242;7.956;2024-02-04T06:46:27;7.57;;;1.67;;
5121;SDS011;2563;52.242;7.956;2024-02-04T06:48:52;10.53;;;1.70;;
5121;SDS011;2563;52.242;7.956;2024-02-04T06:51:18;5.77;;;1.43;;
5121;SDS011;2563;52.242;7.956;2024-02-04T06:53:44;5.40;;;1.33;;
5121;SDS011;2563;52.242;7.956;2024-02-04T06:56:10;6.73;;;1.40;;
5121;SDS011;2563;52.242;7.956;2024-02-04T06:58:39;7.13;;;1.20;;
5121;SDS011;2563;52.242;7.956;2024-02-04T07:01:04;4.97;;;1.13;;
5121;SDS011;2563;52.242;7.956;2024-02-04T07:03:30;4.30;;;1.27;;
5121;SDS011;2563;52.242;7.956;2024-02-04T07:05:57;5.73;;;1.60;;
5121;SDS011;2563;52.242;7.956;2024-02-04T07:08:23;9.20;;;2.73;;
5121;SDS011;2563;52.242;7.956;2024-02-04T07:10:48;16.20;;;1.83;;
5121;SDS011;2563;52.242;7.956;2024-02-04T07:13:14;7.17;;;1.60;;
5121;SDS011;2563;52.242;7.956;2024-02-04T07:15:39;9.60;;;1.77;;
5121;SDS011;2563;52.242;7.956;2024-02-04T07:18:05;7.33;;;1.60;;
5121;SDS011;2563;52.242;7.956;2024-02-04T07:20:30;6.10;;;1.53;;
5121;SDS011;2563;52.242;7.956;2024-02-04T07:22:57;8.63;;;1.30;;
5121;SDS011;2563;52.242;7.956;2024-02-04T07:25:22;8.57;;;1.20;;
5121;SDS011;2563;52.242;7.956;2024-02-04T07:27:48;11.20;;;1.80;;
5121;SDS011;2563;52.242;7.956;2024-02-04T07:30:13;13.57;;;1.63;;
5121;SDS011;2563;52.242;7.956;2024-02-04T07:32:39;9.40;;;1.73;;
5121;SDS011;2563;52.242;7.956;2024-02-04T07:35:05;4.63;;;1.50;;
5121;SDS011;2563;52.242;7.956;2024-02-04T07:37:31;7.93;;;1.60;;
5121;SDS011;2563;52.242;7.956;2024-02-04T07:39:56;9.30;;;1.57;;
5121;SDS011;2563;52.242;7.956;2024-02-04T07:42:22;6.27;;;1.97;;
5121;SDS011;2563;52.242;7.956;2024-02-04T07:44:47;7.83;;;1.50;;
5121;SDS011;2563;52.242;7.956;2024-02-04T07:47:13;10.13;;;1.40;;
5121;SDS011;2563;52.242;7.956;2024-02-04T07:49:38;8.70;;;1.80;;
5121;SDS011;2563;52.242;7.956;2024-02-04T07:52:04;9.57;;;1.67;;
5121;SDS011;2563;52.242;7.956;2024-02-04T07:54:30;5.80;;;1.20;;
5121;SDS011;2563;52.242;7.956;2024-02-04T07:56:55;9.27;;;1.60;;
5121;SDS011;2563;52.242;7.956;2024-02-04T07:59:21;7.23;;;1.30;;
5121;SDS011;2563;52.242;7.956;2024-02-04T08:01:46;16.13;;;1.57;;
5121;SDS011;2563;52.242;7.956;2024-02-04T08:04:12;6.33;;;1.40;;
5121;SDS011;2563;52.242;7.956;2024-02-04T08:06:37;11.37;;;1.90;;
5121;SDS011;2563;52.242;7.956;2024-02-04T08:09:03;7.80;;;1.60;;
5121;SDS011;2563;52.242;7.956;2024-02-04T08:11:29;10.60;;;1.30;;
5121;SDS011;2563;52.242;7.956;2024-02-04T08:13:54;11.70;;;1.43;;
5121;SDS011;2563;52.242;7.956;2024-02-04T08:16:20;14.00;;;1.80;;
5121;SDS011;2563;52.242;7.956;2024-02-04T08:18:46;9.87;;;1.60;;
5121;SDS011;2563;52.242;7.956;2024-02-04T08:21:11;8.83;;;1.67;;
5121;SDS011;2563;52.242;7.956;2024-02-04T08:23:37;10.53;;;1.40;;
5121;SDS011;2563;52.242;7.956;2024-02-04T08:26:04;7.77;;;1.33;;
5121;SDS011;2563;52.242;7.956;2024-02-04T08:28:30;9.17;;;1.93;;
5121;SDS011;2563;52.242;7.956;2024-02-04T08:30:55;12.17;;;1.87;;
5121;SDS011;2563;52.242;7.956;2024-02-04T08:33:21;10.50;;;1.40;;
5121;SDS011;2563;52.242;7.956;2024-02-04T08:35:47;9.70;;;1.40;;
5121;SDS011;2563;52.242;7.956;2024-02-04T08:38:13;19.07;;;1.70;;
5121;SDS011;2563;52.242;7.956;2024-02-04T08:40:38;11.70;;;1.77;;
5121;SDS011;2563;52.242;7.956;2024-02-04T08:43:04;10.00;;;1.50;;
5121;SDS011;2563;52.242;7.956;2024-02-04T08:45:29;15.73;;;1.80;;
5121;SDS011;2563;52.242;7.956;2024-02-04T08:47:54;9.80;;;1.90;;
5121;SDS011;2563;52.242;7.956;2024-02-04T08:50:20;6.73;;;1.47;;
5121;SDS011;2563;52.242;7.956;2024-02-04T08:52:45;11.80;;;1.70;;
5121;SDS011;2563;52.242;7.956;2024-02-04T08:55:10;13.60;;;1.90;;
5121;SDS011;2563;52.242;7.956;2024-02-04T08:57:36;10.40;;;2.07;;
5121;SDS011;2563;52.242;7.956;2024-02-04T09:00:01;9.10;;;1.77;;
5121;SDS011;2563;52.242;7.956;2024-02-04T09:02:27;11.70;;;2.90;;
5121;SDS011;2563;52.242;7.956;2024-02-04T09:04:52;6.97;;;1.57;;
5121;SDS011;2563;52.242;7.956;2024-02-04T09:07:19;6.87;;;1.47;;
5121;SDS011;2563;52.242;7.956;2024-02-04T09:09:45;9.93;;;1.53;;
5121;SDS011;2563;52.242;7.956;2024-02-04T09:12:10;7.70;;;1.37;;
5121;SDS011;2563;52.242;7.956;2024-02-04T09:14:35;10.00;;;1.47;;
5121;SDS011;2563;52.242;7.956;2024-02-04T09:17:04;6.03;;;1.40;;
5121;SDS011;2563;52.242;7.956;2024-02-04T09:19:31;6.90;;;1.33;;
5121;SDS011;2563;52.242;7.956;2024-02-04T09:21:56;5.73;;;1.20;;
5121;SDS011;2563;52.242;7.956;2024-02-04T09:24:22;3.80;;;1.17;;
5121;SDS011;2563;52.242;7.956;2024-02-04T09:26:47;6.00;;;1.40;;
5121;SDS011;2563;52.242;7.956;2024-02-04T09:29:13;4.77;;;1.20;;
5121;SDS011;2563;52.242;7.956;2024-02-04T09:31:38;7.00;;;1.50;;
5121;SDS011;2563;52.242;7.956;2024-02-04T09:34:04;5.07;;;1.30;;
5121;SDS011;2563;52.242;7.956;2024-02-04T09:36:29;5.03;;;1.67;;
5121;SDS011;2563;52.242;7.956;2024-02-04T09:38:55;6.43;;;1.07;;
5121;SDS011;2563;52.242;7.956;2024-02-04T09:41:21;4.40;;;1.00;;
5121;SDS011;2563;52.242;7.956;2024-02-04T09:43:48;5.07;;;1.10;;
5121;SDS011;2563;52.242;7.956;2024-02-04T09:46:15;4.73;;;0.97;;
5121;SDS011;2563;52.242;7.956;2024-02-04T09:48:41;5.33;;;1.70;;
5121;SDS011;2563;52.242;7.956;2024-02-04T09:51:10;5.60;;;1.40;;
5121;SDS011;2563;52.242;7.956;2024-02-04T09:53:35;4.50;;;1.27;;
5121;SDS011;2563;52.242;7.956;2024-02-04T09:56:02;4.60;;;1.10;;
5121;SDS011;2563;52.242;7.956;2024-02-04T09:58:31;6.80;;;1.80;;
5121;SDS011;2563;52.242;7.956;2024-02-04T10:00:56;4.30;;;1.03;;
5121;SDS011;2563;52.242;7.956;2024-02-04T10:03:22;8.20;;;1.33;;
5121;SDS011;2563;52.242;7.956;2024-02-04T10:05:47;3.37;;;0.90;;
5121;SDS011;2563;52.242;7.956;2024-02-04T10:08:13;4.03;;;1.30;;
5121;SDS011;2563;52.242;7.956;2024-02-04T10:10:39;4.77;;;1.10;;
5121;SDS011;2563;52.242;7.956;2024-02-04T10:13:08;4.10;;;1.30;;
5121;SDS011;2563;52.242;7.956;2024-02-04T10:15:34;6.20;;;1.27;;
5121;SDS011;2563;52.242;7.956;2024-02-04T10:18:02;5.17;;;1.10;;
5121;SDS011;2563;52.242;7.956;2024-02-04T10:20:29;6.77;;;2.33;;
5121;SDS011;2563;52.242;7.956;2024-02-04T10:22:54;5.97;;;1.07;;
5121;SDS011;2563;52.242;7.956;2024-02-04T10:25:20;5.80;;;1.00;;
5121;SDS011;2563;52.242;7.956;2024-02-04T10:27:46;6.20;;;1.23;;
5121;SDS011;2563;52.242;7.956;2024-02-04T10:30:12;8.30;;;1.63;;
5121;SDS011;2563;52.242;7.956;2024-02-04T10:32:38;8.00;;;1.27;;
5121;SDS011;2563;52.242;7.956;2024-02-04T10:35:03;4.67;;;1.20;;
5121;SDS011;2563;52.242;7.956;2024-02-04T10:37:29;4.50;;;1.27;;
5121;SDS011;2563;52.242;7.956;2024-02-04T10:39:54;9.50;;;1.90;;
5121;SDS011;2563;52.242;7.956;2024-02-04T10:42:24;10.20;;;1.50;;
5121;SDS011;2563;52.242;7.956;2024-02-04T10:44:54;7.93;;;1.50;;
5121;SDS011;2563;52.242;7.956;2024-02-04T10:47:23;7.80;;;1.60;;
5121;SDS011;2563;52.242;7.956;2024-02-04T10:49:50;5.37;;;1.13;;
5121;SDS011;2563;52.242;7.956;2024-02-04T10:52:19;3.83;;;1.20;;
5121;SDS011;2563;52.242;7.956;2024-02-04T10:54:46;5.80;;;1.77;;
5121;SDS011;2563;52.242;7.956;2024-02-04T10:57:17;7.67;;;1.80;;
5121;SDS011;2563;52.242;7.956;2024-02-04T10:59:46;4.83;;;1.50;;
5121;SDS011;2563;52.242;7.956;2024-02-04T11:02:12;6.60;;;1.70;;
5121;SDS011;2563;52.242;7.956;2024-02-04T11:04:40;8.00;;;1.73;;
5121;SDS011;2563;52.242;7.956;2024-02-04T11:07:07;6.10;;;1.30;;
5121;SDS011;2563;52.242;7.956;2024-02-04T11:09:35;7.90;;;2.90;;
5121;SDS011;2563;52.242;7.956;2024-02-04T11:12:01;8.70;;;2.13;;
5121;SDS011;2563;52.242;7.956;2024-02-04T11:14:31;9.00;;;3.13;;
5121;SDS011;2563;52.242;7.956;2024-02-04T11:25:15;7.00;;;2.33;;
5121;SDS011;2563;52.242;7.956;2024-02-04T11:27:53;8.27;;;3.10;;
5121;SDS011;2563;52.242;7.956;2024-02-04T11:30:19;4.97;;;2.40;;
5121;SDS011;2563;52.242;7.956;2024-02-04T11:32:45;12.60;;;3.97;;
5121;SDS011;2563;52.242;7.956;2024-02-04T11:35:11;6.40;;;2.90;;
5121;SDS011;2563;52.242;7.956;2024-02-04T11:37:38;10.23;;;5.33;;
5121;SDS011;2563;52.242;7.956;2024-02-04T11:40:07;11.33;;;4.50;;
5121;SDS011;2563;52.242;7.956;2024-02-04T11:42:33;6.73;;;3.37;;
5121;SDS011;2563;52.242;7.956;2024-02-04T11:45:11;14.87;;;3.10;;
5121;SDS011;2563;52.242;7.956;2024-02-04T11:47:37;12.53;;;3.70;;
5121;SDS011;2563;52.242;7.956;2024-02-04T11:50:04;6.90;;;3.27;;
5121;SDS011;2563;52.242;7.956;2024-02-04T11:52:29;8.20;;;2.83;;
5121;SDS011;2563;52.242;7.956;2024-02-04T11:54:55;7.83;;;2.70;;
5121;SDS011;2563;52.242;7.956;2024-02-04T11:57:21;6.63;;;2.83;;
5121;SDS011;2563;52.242;7.956;2024-02-04T11:59:48;7.77;;;2.80;;
5121;SDS011;2563;52.242;7.956;2024-02-04T12:02:17;7.30;;;2.20;;
5121;SDS011;2563;52.242;7.956;2024-02-04T12:04:45;5.80;;;2.63;;
5121;SDS011;2563;52.242;7.956;2024-02-04T12:07:11;7.30;;;3.10;;
5121;SDS011;2563;52.242;7.956;2024-02-04T12:09:38;7.27;;;2.83;;
5121;SDS011;2563;52.242;7.956;2024-02-04T12:12:04;8.73;;;3.07;;
5121;SDS011;2563;52.242;7.956;2024-02-04T12:14:30;8.80;;;3.10;;
5121;SDS011;2563;52.242;7.956;2024-02-04T12:16:56;5.60;;;2.67;;
5121;SDS011;2563;52.242;7.956;2024-02-04T12:19:22;6.20;;;2.70;;
5121;SDS011;2563;52.242;7.956;2024-02-04T12:21:48;8.50;;;3.00;;
5121;SDS011;2563;52.242;7.956;2024-02-04T12:24:14;10.40;;;3.10;;
5121;SDS011;2563;52.242;7.956;2024-02-04T12:26:39;11.23;;;3.90;;
5121;SDS011;2563;52.242;7.956;2024-02-04T12:29:05;9.67;;;3.60;;
5121;SDS011;2563;52.242;7.956;2024-02-04T12:31:31;8.20;;;3.97;;
5121;SDS011;2563;52.242;7.956;2024-02-04T12:33:59;14.50;;;4.03;;
5121;SDS011;2563;52.242;7.956;2024-02-04T12:36:29;8.83;;;2.93;;
5121;SDS011;2563;52.242;7.956;2024-02-04T12:38:57;7.03;;;3.03;;
5121;SDS011;2563;52.242;7.956;2024-02-04T12:41:25;7.23;;;3.40;;
5121;SDS011;2563;52.242;7.956;2024-02-04T12:43:52;6.83;;;3.40;;
5121;SDS011;2563;52.242;7.956;2024-02-04T12:46:19;7.17;;;2.90;;
5121;SDS011;2563;52.242;7.956;2024-02-04T12:48:45;10.77;;;4.40;;
5121;SDS011;2563;52.242;7.956;2024-02-04T12:54:08;6.83;;;2.93;;
5121;SDS011;2563;52.242;7.956;2024-02-04T12:59:32;10.27;;;3.07;;
5121;SDS011;2563;52.242;7.956;2024-02-04T13:02:02;8.10;;;3.00;;
5121;SDS011;2563;52.242;7.956;2024-02-04T13:07:00;7.03;;;2.40;;
5121;SDS011;2563;52.242;7.956;2024-02-04T13:09:26;6.13;;;2.47;;
5121;SDS011;2563;52.242;7.956;2024-02-04T13:11:51;13.57;;;2.17;;
5121;SDS011;2563;52.242;7.956;2024-02-04T13:14:16;10.90;;;2.70;;
5121;SDS011;2563;52.242;7.956;2024-02-04T13:16:42;3.87;;;1.40;;
5121;SDS011;2563;52.242;7.956;2024-02-04T13:19:07;5.63;;;1.10;;
5121;SDS011;2563;52.242;7.956;2024-02-04T13:21:33;3.87;;;1.00;;
5121;SDS011;2563;52.242;7.956;2024-02-04T13:23:58;3.70;;;1.10;;
5121;SDS011;2563;52.242;7.956;2024-02-04T13:26:24;4.60;;;0.80;;
5121;SDS011;2563;52.242;7.956;2024-02-04T13:28:49;3.00;;;0.60;;
5121;SDS011;2563;52.242;7.956;2024-02-04T13:31:15;2.97;;;0.50;;
5121;SDS011;2563;52.242;7.956;2024-02-04T13:33:40;7.10;;;1.17;;
5121;SDS011;2563;52.242;7.956;2024-02-04T13:36:09;5.93;;;0.97;;
5121;SDS011;2563;52.242;7.956;2024-02-04T13:38:36;2.70;;;0.60;;
5121;SDS011;2563;52.242;7.956;2024-02-04T13:41:04;5.43;;;0.80;;
5121;SDS011;2563;52.242;7.956;2024-02-04T13:43:32;4.10;;;0.60;;
5121;SDS011;2563;52.242;7.956;2024-02-04T13:45:57;3.90;;;0.93;;
5121;SDS011;2563;52.242;7.956;2024-02-04T13:48:24;2.67;;;0.60;;
5121;SDS011;2563;52.242;7.956;2024-02-04T13:50:50;3.60;;;0.83;;
5121;SDS011;2563;52.242;7.956;2024-02-04T13:53:16;3.40;;;0.90;;
5121;SDS011;2563;52.242;7.956;2024-02-04T13:55:41;3.80;;;0.93;;
5121;SDS011;2563;52.242;7.956;2024-02-04T13:58:07;2.87;;;0.70;;
5121;SDS011;2563;52.242;7.956;2024-02-04T14:00:32;3.50;;;1.03;;
5121;SDS011;2563;52.242;7.956;2024-02-04T14:02:58;5.50;;;1.43;;
5121;SDS011;2563;52.242;7.956;2024-02-04T14:05:23;5.53;;;1.20;;
5121;SDS011;2563;52.242;7.956;2024-02-04T14:07:50;10.10;;;1.10;;
5121;SDS011;2563;52.242;7.956;2024-02-04T14:10:16;2.90;;;0.83;;
5121;SDS011;2563;52.242;7.956;2024-02-04T14:12:41;3.00;;;0.83;;
5121;SDS011;2563;52.242;7.956;2024-02-04T14:15:10;3.00;;;1.00;;
5121;SDS011;2563;52.242;7.956;2024-02-04T14:17:35;3.33;;;0.90;;
5121;SDS011;2563;52.242;7.956;2024-02-04T14:20:01;4.43;;;0.73;;
5121;SDS011;2563;52.242;7.956;2024-02-04T14:22:26;4.63;;;0.90;;
5121;SDS011;2563;52.242;7.956;2024-02-04T14:24:52;4.83;;;1.20;;
5121;SDS011;2563;52.242;7.956;2024-02-04T14:27:18;3.40;;;0.83;;
5121;SDS011;2563;52.242;7.956;2024-02-04T14:29:43;5.10;;;2.60;;
5121;SDS011;2563;52.242;7.956;2024-02-04T14:32:09;3.50;;;1.20;;
5121;SDS011;2563;52.242;7.956;2024-02-04T14:34:34;5.30;;;1.53;;
5121;SDS011;2563;52.242;7.956;2024-02-04T14:37:00;5.40;;;1.73;;
5121;SDS011;2563;52.242;7.956;2024-02-04T14:39:25;5.90;;;1.80;;
5121;SDS011;2563;52.242;7.956;2024-02-04T14:41:51;6.53;;;1.73;;
5121;SDS011;2563;52.242;7.956;2024-02-04T14:44:18;4.70;;;1.40;;
5121;SDS011;2563;52.242;7.956;2024-02-04T14:46:44;8.47;;;1.40;;
5121;SDS011;2563;52.242;7.956;2024-02-04T14:49:10;4.20;;;1.33;;
5121;SDS011;2563;52.242;7.956;2024-02-04T14:51:38;5.20;;;1.30;;
5121;SDS011;2563;52.242;7.956;2024-02-04T14:54:04;5.30;;;1.40;;
5121;SDS011;2563;52.242;7.956;2024-02-04T14:56:30;4.30;;;1.60;;
5121;SDS011;2563;52.242;7.956;2024-02-04T14:58:55;4.63;;;1.50;;
5121;SDS011;2563;52.242;7.956;2024-02-04T15:01:21;3.80;;;1.10;;
5121;SDS011;2563;52.242;7.956;2024-02-04T15:03:46;3.50;;;1.30;;
5121;SDS011;2563;52.242;7.956;2024-02-04T15:06:12;4.70;;;1.20;;
5121;SDS011;2563;52.242;7.956;2024-02-04T15:08:37;5.60;;;1.60;;
5121;SDS011;2563;52.242;7.956;2024-02-04T15:11:03;4.37;;;1.77;;
5121;SDS011;2563;52.242;7.956;2024-02-04T15:13:28;6.63;;;1.90;;
5121;SDS011;2563;52.242;7.956;2024-02-04T15:15:54;4.40;;;1.40;;
5121;SDS011;2563;52.242;7.956;2024-02-04T15:18:20;4.00;;;1.40;;
5121;SDS011;2563;52.242;7.956;2024-02-04T15:20:45;6.97;;;1.80;;
5121;SDS011;2563;52.242;7.956;2024-02-04T15:23:11;4.70;;;2.00;;